Terminal Aerodrome Forecast
Issued by NWS

Home | Current Version | Previous Version | Text Only | Print | Product List | Glossary On
Versions: 1 2 3 4 5 6 7 8 9 10 11 12 13 14
000
FTUS45 KABQ 041123
TAFLVS
TAF
KLVS 041123Z 0412/0512 01007KT P6SM SKC
     FM041900 23011KT P6SM SCT120
     FM042100 23011G21KT P6SM SCT100
     FM050100 23009KT P6SM SCT120
     FM050600 35007KT P6SM SKC
      AMD NOT SKED=

USA.gov is the U.S. government's official web portal to all federal, state and local government web resources and services.